Time;durP1;ratioP1;P1;durP2;ratioP2;P2;SDS_P1;SDS_P2;PMS_P1;PMS_P2;Temp;Humidity;BMP_temperature;BMP_pressure;BME280_temperature;BME280_humidity;BME280_pressure;Samples;Min_cycle;Max_cycle;Signal;HPM_P1;HPM_P2
2021/08/02 00:04:38;;;;;;;3.63;2.90;;;18.20;99.90;;;;;;10280318;28;20219;-81
2021/08/02 00:15:08;;;;;;;2.77;2.63;;;18.30;99.90;;;;;;10225713;28;20238;-81
2021/08/02 00:20:12;;;;;;;2.80;2.70;;;18.40;99.90;;;;;;10241841;28;20673;-80
2021/08/02 00:25:17;;;;;;;2.93;2.73;;;18.40;99.90;;;;;;10228789;28;20239;-82
2021/08/02 00:30:20;;;;;;;3.00;2.80;;;18.40;99.90;;;;;;10239432;29;20392;-81
2021/08/02 00:35:23;;;;;;;3.17;2.87;;;18.40;99.90;;;;;;10221172;28;20268;-81
2021/08/02 00:40:59;;;;;;;3.17;2.93;;;18.30;99.90;;;;;;10220792;29;20926;-81
2021/08/02 00:46:03;;;;;;;2.63;2.43;;;18.30;99.90;;;;;;10221383;28;20700;-80
2021/08/02 00:51:06;;;;;;;3.20;3.00;;;18.30;99.90;;;;;;10204218;29;20931;-83
2021/08/02 00:56:12;;;;;;;2.90;2.70;;;18.30;99.90;;;;;;10218605;29;20405;-81
2021/08/02 01:01:32;;;;;;;2.60;2.50;;;18.30;99.90;;;;;;10230266;29;20212;-80
2021/08/02 01:06:34;;;;;;;3.07;2.97;;;18.40;99.90;;;;;;10235721;28;20227;-81
2021/08/02 01:11:40;;;;;;;2.83;2.63;;;18.40;99.90;;;;;;10274045;29;20228;-80
2021/08/02 01:16:46;;;;;;;2.93;2.70;;;18.40;99.90;;;;;;10279031;28;20249;-80
2021/08/02 01:21:57;;;;;;;3.23;3.03;;;18.40;99.90;;;;;;10254607;29;20204;-82
2021/08/02 01:27:34;;;;;;;3.17;2.70;;;18.30;99.90;;;;;;10253161;28;20228;-81
2021/08/02 01:32:43;;;;;;;3.30;2.70;;;18.30;99.90;;;;;;10245431;29;20292;-80
2021/08/02 01:37:46;;;;;;;2.90;2.70;;;18.20;99.90;;;;;;10221730;29;20257;-80
2021/08/02 01:42:50;;;;;;;6.00;2.77;;;18.20;99.90;;;;;;10230570;29;20200;-80
2021/08/02 01:48:08;;;;;;;3.03;2.83;;;18.10;99.90;;;;;;10225747;29;20235;-80
2021/08/02 01:53:19;;;;;;;2.60;2.40;;;18.00;99.90;;;;;;10244230;29;20228;-80
2021/08/02 01:58:25;;;;;;;3.60;3.30;;;18.00;99.90;;;;;;10205197;29;20248;-82
2021/08/02 02:03:37;;;;;;;3.17;2.50;;;18.00;99.90;;;;;;10236379;29;20295;-81
2021/08/02 02:08:57;;;;;;;5.60;3.20;;;18.00;99.90;;;;;;10215318;29;20227;-81
2021/08/02 02:14:11;;;;;;;3.20;2.83;;;17.90;99.90;;;;;;10222271;28;20232;-80
2021/08/02 02:19:23;;;;;;;3.30;3.10;;;17.90;99.90;;;;;;10216674;29;20213;-80
2021/08/02 02:24:28;;;;;;;2.93;2.73;;;17.80;99.90;;;;;;10239644;28;20239;-81
2021/08/02 02:29:32;;;;;;;2.73;2.63;;;17.80;99.90;;;;;;10218581;28;20766;-81
2021/08/02 02:34:38;;;;;;;2.83;2.63;;;17.80;99.90;;;;;;10225282;28;20719;-81
2021/08/02 02:39:42;;;;;;;3.80;3.50;;;17.80;99.90;;;;;;10203284;28;20212;-81
2021/08/02 02:44:46;;;;;;;3.20;3.00;;;17.80;99.90;;;;;;10227303;28;20608;-82
2021/08/02 02:49:52;;;;;;;5.97;3.00;;;17.80;99.90;;;;;;10229543;29;20301;-80
2021/08/02 02:54:59;;;;;;;3.13;2.80;;;17.80;99.90;;;;;;10235360;29;20268;-81
2021/08/02 03:00:01;;;;;;;5.60;3.00;;;17.80;99.90;;;;;;10224439;29;20216;-80
2021/08/02 03:05:10;;;;;;;5.93;3.30;;;17.80;99.90;;;;;;10220819;29;20363;-81
2021/08/02 03:10:14;;;;;;;3.43;3.20;;;17.80;99.90;;;;;;10222378;29;20215;-82
2021/08/02 03:15:21;;;;;;;3.70;3.37;;;17.80;99.90;;;;;;10238140;29;20287;-82
2021/08/02 03:20:26;;;;;;;3.13;2.93;;;17.80;99.90;;;;;;10242202;29;20211;-82
2021/08/02 03:25:33;;;;;;;4.47;3.43;;;17.80;99.90;;;;;;10242277;29;20217;-81
2021/08/02 03:30:40;;;;;;;7.60;3.17;;;17.80;99.90;;;;;;10219386;29;20818;-82
2021/08/02 03:35:50;;;;;;;3.57;3.00;;;17.80;99.90;;;;;;10248406;29;20312;-80
2021/08/02 03:40:53;;;;;;;3.33;3.13;;;17.80;99.90;;;;;;10246934;29;20699;-81
2021/08/02 03:45:56;;;;;;;3.07;2.87;;;17.80;99.90;;;;;;10218062;29;20276;-81
2021/08/02 03:51:00;;;;;;;3.00;2.80;;;17.80;99.90;;;;;;10234200;28;20209;-80
2021/08/02 03:56:02;;;;;;;4.03;3.20;;;17.80;99.90;;;;;;10239601;28;20234;-81
2021/08/02 04:01:11;;;;;;;3.67;3.40;;;17.70;99.90;;;;;;10219728;29;21209;-81
2021/08/02 04:06:14;;;;;;;3.73;3.17;;;17.70;99.90;;;;;;10252106;28;20878;-80
2021/08/02 04:11:17;;;;;;;3.57;3.10;;;17.70;99.90;;;;;;10283772;29;20212;-81
2021/08/02 04:16:19;;;;;;;3.50;3.20;;;17.70;99.90;;;;;;10285374;28;20233;-81
2021/08/02 04:21:27;;;;;;;3.13;2.80;;;17.80;99.90;;;;;;10259144;29;20199;-82
2021/08/02 04:26:29;;;;;;;3.23;2.93;;;17.80;99.90;;;;;;10268337;28;20212;-80
2021/08/02 04:31:32;;;;;;;2.93;2.77;;;17.80;99.90;;;;;;10245185;29;20208;-80
2021/08/02 04:36:36;;;;;;;3.47;2.90;;;17.80;99.90;;;;;;10237929;28;20278;-81
2021/08/02 04:41:38;;;;;;;3.60;3.30;;;17.80;99.90;;;;;;10236365;29;20300;-80
2021/08/02 04:46:40;;;;;;;4.23;3.40;;;17.90;99.90;;;;;;10254542;28;20297;-81
2021/08/02 04:51:44;;;;;;;3.47;3.17;;;17.90;99.90;;;;;;10236920;29;20283;-81
2021/08/02 04:56:46;;;;;;;2.77;2.67;;;18.00;99.90;;;;;;10236233;28;20307;-79
2021/08/02 05:01:48;;;;;;;3.50;3.20;;;18.10;99.90;;;;;;10237056;29;20668;-80
2021/08/02 05:06:51;;;;;;;3.07;2.87;;;18.10;99.90;;;;;;10236434;28;20232;-82
2021/08/02 05:11:54;;;;;;;4.17;3.67;;;18.10;99.90;;;;;;10253842;29;20283;-82
2021/08/02 05:16:56;;;;;;;5.40;3.10;;;18.20;99.90;;;;;;10252316;28;20311;-79
2021/08/02 05:21:59;;;;;;;3.80;2.90;;;18.20;99.90;;;;;;10254522;29;20709;-81
2021/08/02 05:27:01;;;;;;;4.40;3.50;;;18.20;99.90;;;;;;10220356;29;20603;-81
2021/08/02 05:32:05;;;;;;;3.00;2.80;;;18.20;99.90;;;;;;10257744;29;20208;-82
2021/08/02 05:37:09;;;;;;;5.10;3.20;;;18.30;99.90;;;;;;10254466;28;20319;-80
2021/08/02 05:42:11;;;;;;;4.10;3.13;;;18.30;99.90;;;;;;10296377;28;20745;-81
2021/08/02 05:47:14;;;;;;;3.67;3.30;;;18.20;99.90;;;;;;10275783;28;20704;-82
2021/08/02 05:52:17;;;;;;;2.90;2.70;;;18.30;99.90;;;;;;10276111;28;20287;-82
2021/08/02 05:57:21;;;;;;;3.40;3.20;;;18.30;99.90;;;;;;10276495;28;20230;-82
2021/08/02 06:02:23;;;;;;;5.43;2.80;;;18.40;99.90;;;;;;10258647;28;20207;-83
2021/08/02 06:07:26;;;;;;;3.30;3.10;;;18.50;99.90;;;;;;10269730;28;20308;-82
2021/08/02 06:12:28;;;;;;;4.00;3.00;;;18.50;99.90;;;;;;10234713;29;20223;-81
2021/08/02 06:17:30;;;;;;;3.20;3.00;;;18.60;99.90;;;;;;10233265;29;20224;-81
2021/08/02 06:22:34;;;;;;;3.00;2.70;;;18.70;99.90;;;;;;10253076;29;20249;-81
2021/08/02 06:27:36;;;;;;;4.07;2.83;;;18.80;99.90;;;;;;10218907;29;20260;-82
2021/08/02 06:32:38;;;;;;;2.63;2.47;;;18.90;99.90;;;;;;10233712;29;20223;-83
2021/08/02 06:37:42;;;;;;;4.30;2.83;;;19.00;99.90;;;;;;10272723;28;20251;-82
2021/08/02 06:42:44;;;;;;;3.00;2.80;;;19.00;99.90;;;;;;10273897;28;20275;-82
2021/08/02 06:47:47;;;;;;;6.10;2.80;;;19.10;99.90;;;;;;10289846;28;20216;-82
2021/08/02 06:52:50;;;;;;;2.70;2.60;;;19.30;99.90;;;;;;10292137;28;20295;-83
2021/08/02 06:57:52;;;;;;;2.43;2.23;;;19.40;99.90;;;;;;10261386;23;20614;-84
2021/08/02 07:02:57;;;;;;;4.10;2.63;;;19.40;99.90;;;;;;10217905;29;20227;-83
2021/08/02 07:08:03;;;;;;;3.37;2.60;;;19.50;99.90;;;;;;10247076;28;20264;-83
2021/08/02 07:13:11;;;;;;;3.40;2.87;;;19.50;99.90;;;;;;10279544;28;20284;-84
2021/08/02 07:18:24;;;;;;;2.80;2.50;;;19.70;99.90;;;;;;10278331;28;20224;-84
2021/08/02 07:23:30;;;;;;;2.40;2.17;;;19.90;99.90;;;;;;10277339;28;20271;-83
2021/08/02 07:28:35;;;;;;;2.90;2.70;;;20.20;99.90;;;;;;10264780;28;20242;-83
2021/08/02 07:33:42;;;;;;;2.83;2.50;;;20.40;99.90;;;;;;10301064;28;20632;-84
2021/08/02 07:38:48;;;;;;;2.47;2.37;;;20.70;99.90;;;;;;10237373;29;20235;-83
2021/08/02 07:44:00;;;;;;;2.00;1.90;;;21.00;99.90;;;;;;10245525;29;20548;-84
2021/08/02 07:49:12;;;;;;;2.67;2.40;;;21.30;99.90;;;;;;10243289;29;20221;-83
2021/08/02 07:54:25;;;;;;;2.40;2.20;;;21.50;99.90;;;;;;10244132;28;20240;-84
2021/08/02 07:59:28;;;;;;;2.27;2.17;;;21.70;99.90;;;;;;10231795;29;20212;-84
2021/08/02 08:04:31;;;;;;;2.43;2.23;;;21.90;99.90;;;;;;10226940;28;20203;-84
2021/08/02 08:09:35;;;;;;;2.60;2.40;;;22.00;99.90;;;;;;10205573;29;20236;-83
2021/08/02 08:14:37;;;;;;;2.53;2.43;;;22.00;99.90;;;;;;10223603;29;20258;-84
2021/08/02 08:19:40;;;;;;;1.77;1.67;;;21.90;99.90;;;;;;10203555;29;20205;-84
2021/08/02 08:24:53;;;;;;;2.70;2.50;;;22.00;99.90;;;;;;10203024;29;20224;-84
2021/08/02 08:30:03;;;;;;;2.50;2.20;;;22.30;99.90;;;;;;10203194;29;20340;-84
2021/08/02 08:35:22;;;;;;;1.83;1.73;;;22.50;99.90;;;;;;10204191;28;20683;-84
2021/08/02 08:40:42;;;;;;;2.40;2.00;;;22.90;99.90;;;;;;10225150;29;20207;-84
2021/08/02 08:46:08;;;;;;;2.30;2.13;;;23.50;99.90;;;;;;10223712;28;20216;-84
2021/08/02 08:51:51;;;;;;;3.63;2.60;;;24.10;99.90;;;;;;10239307;29;20291;-84
2021/08/02 08:57:20;;;;;;;2.20;2.10;;;24.90;99.90;;;;;;10236934;28;20238;-84
2021/08/02 09:02:30;;;;;;;2.63;2.00;;;25.10;99.90;;;;;;10239269;29;20300;-84
2021/08/02 09:08:07;;;;;;;3.40;2.10;;;25.00;99.90;;;;;;10238444;28;20228;-84
2021/08/02 09:19:22;;;;;;;2.10;2.00;;;25.10;99.90;;;;;;10138912;29;20225;-84
2021/08/02 09:25:24;;;;;;;3.87;2.17;;;25.30;99.50;;;;;;10221453;28;20192;-84
2021/08/02 09:31:09;;;;;;;2.93;2.30;;;25.50;99.90;;;;;;10218931;29;20201;-84
2021/08/02 09:42:48;;;;;;;2.03;1.93;;;25.70;95.20;;;;;;10216746;29;20579;-84
2021/08/02 09:48:46;;;;;;;2.30;2.20;;;25.90;96.30;;;;;;10256258;28;20863;-84
2021/08/02 09:53:57;;;;;;;2.00;1.90;;;26.20;95.00;;;;;;10248531;28;20212;-84
2021/08/02 09:58:59;;;;;;;2.47;1.97;;;26.40;94.00;;;;;;10234679;29;20255;-84
2021/08/02 10:04:23;;;;;;;2.53;2.30;;;26.60;92.60;;;;;;10225489;29;20227;-84
2021/08/02 10:10:03;;;;;;;6.03;2.57;;;27.20;92.40;;;;;;10233880;29;20215;-84
2021/08/02 10:15:32;;;;;;;3.07;2.83;;;27.50;90.10;;;;;;10121978;28;20333;-84
2021/08/02 10:20:36;;;;;;;4.30;4.00;;;26.40;97.30;;;;;;10236927;28;20252;-83
2021/08/02 10:25:41;;;;;;;3.90;3.57;;;24.40;99.90;;;;;;10239039;28;20288;-84
2021/08/02 10:30:48;;;;;;;3.90;3.60;;;23.10;99.90;;;;;;10237942;28;20209;-84
2021/08/02 10:35:51;;;;;;;3.27;3.07;;;22.10;99.90;;;;;;10236324;28;20236;-84
2021/08/02 10:40:56;;;;;;;4.23;3.10;;;21.60;99.90;;;;;;10236345;29;20225;-84
2021/08/02 10:45:59;;;;;;;4.10;3.70;;;21.00;99.90;;;;;;10235668;28;20217;-85
2021/08/02 10:51:12;;;;;;;3.93;3.63;;;20.40;99.90;;;;;;10234587;29;20208;-84
2021/08/02 10:56:24;;;;;;;7.40;6.40;;;20.10;99.90;;;;;;10236284;28;20685;-84
2021/08/02 11:01:28;;;;;;;6.47;5.83;;;19.90;99.90;;;;;;10237389;28;20275;-85
2021/08/02 11:06:32;;;;;;;5.30;4.90;;;19.90;99.90;;;;;;10242653;28;20395;-84
2021/08/02 11:11:37;;;;;;;4.73;4.20;;;19.60;99.90;;;;;;10259252;29;20572;-84
2021/08/02 11:16:41;;;;;;;4.27;3.70;;;19.40;99.90;;;;;;10260817;28;20240;-84
2021/08/02 11:21:46;;;;;;;4.03;3.83;;;19.00;99.90;;;;;;10228118;29;20211;-84
2021/08/02 11:26:51;;;;;;;4.60;4.40;;;18.50;99.90;;;;;;10243363;28;20229;-85
2021/08/02 11:31:55;;;;;;;3.80;3.50;;;18.00;99.90;;;;;;10266776;29;20269;-84
2021/08/02 11:37:01;;;;;;;3.33;3.13;;;17.70;99.90;;;;;;10229960;28;20236;-85
2021/08/02 11:42:08;;;;;;;4.30;4.00;;;17.90;99.90;;;;;;10244592;29;20336;-85
2021/08/02 11:47:12;;;;;;;3.73;3.50;;;18.40;99.90;;;;;;10260614;28;20216;-85
2021/08/02 11:52:18;;;;;;;3.43;3.23;;;18.90;99.90;;;;;;10229768;29;20291;-85
2021/08/02 11:57:24;;;;;;;4.67;4.27;;;19.30;99.90;;;;;;10259775;29;20273;-85
2021/08/02 12:02:31;;;;;;;4.77;3.90;;;19.30;99.90;;;;;;10227817;29;20213;-85
2021/08/02 12:07:35;;;;;;;3.97;3.67;;;19.30;99.90;;;;;;10274931;28;20236;-85
2021/08/02 12:12:38;;;;;;;4.50;4.30;;;19.20;99.90;;;;;;10228531;28;20570;-84
2021/08/02 12:17:47;;;;;;;4.40;4.20;;;18.90;99.90;;;;;;10257313;28;20236;-85
2021/08/02 12:22:51;;;;;;;4.93;4.53;;;18.80;99.90;;;;;;10240688;29;20219;-85
2021/08/02 12:27:59;;;;;;;5.30;4.80;;;18.60;99.90;;;;;;10240127;29;20221;-85
2021/08/02 12:33:01;;;;;;;3.50;3.30;;;18.40;99.90;;;;;;10254790;29;20645;-85
2021/08/02 12:38:06;;;;;;;3.67;3.47;;;18.30;99.90;;;;;;10198139;29;20261;-85
2021/08/02 12:43:08;;;;;;;3.30;3.13;;;18.30;99.90;;;;;;10199356;29;20209;-84
2021/08/02 12:48:10;;;;;;;3.50;3.20;;;18.30;99.90;;;;;;10199432;29;20732;-85
2021/08/02 12:53:14;;;;;;;2.90;2.80;;;18.40;99.90;;;;;;10199835;29;20194;-85
2021/08/02 12:58:16;;;;;;;3.10;2.90;;;18.50;99.90;;;;;;10277641;23;20236;-82
2021/08/02 13:03:19;;;;;;;3.53;3.33;;;18.60;99.90;;;;;;10293066;28;20272;-82
2021/08/02 13:08:23;;;;;;;3.77;3.47;;;18.80;99.90;;;;;;10250872;28;20726;-82
2021/08/02 13:13:25;;;;;;;3.63;3.40;;;19.20;99.90;;;;;;10254922;29;20197;-82
2021/08/02 13:18:27;;;;;;;3.67;3.47;;;19.50;99.90;;;;;;10235840;29;20244;-82
2021/08/02 13:23:35;;;;;;;3.43;3.20;;;19.70;99.90;;;;;;10251501;28;20209;-82
2021/08/02 13:28:37;;;;;;;3.00;2.83;;;19.70;99.90;;;;;;10251333;28;20756;-82
2021/08/02 13:33:39;;;;;;;3.60;3.40;;;19.50;99.90;;;;;;10253754;29;20283;-82
2021/08/02 13:38:43;;;;;;;3.60;3.40;;;19.20;99.90;;;;;;10259932;28;20231;-82
2021/08/02 13:43:46;;;;;;;3.67;3.37;;;18.90;99.90;;;;;;10290858;28;20227;-82
2021/08/02 13:48:48;;;;;;;3.97;3.77;;;18.70;99.90;;;;;;10274802;28;20258;-82
2021/08/02 13:53:52;;;;;;;4.07;3.77;;;18.80;99.90;;;;;;10274019;28;20208;-82
2021/08/02 13:58:54;;;;;;;3.37;3.13;;;18.90;99.90;;;;;;10274244;28;20231;-82
2021/08/02 14:03:57;;;;;;;3.90;3.60;;;19.10;99.90;;;;;;10273589;28;20200;-82
2021/08/02 14:09:00;;;;;;;3.67;3.37;;;19.30;99.90;;;;;;10257541;28;20718;-82
2021/08/02 14:14:05;;;;;;;3.00;2.90;;;19.50;99.90;;;;;;10274083;28;20227;-82
2021/08/02 14:19:12;;;;;;;3.43;3.13;;;19.70;99.90;;;;;;10289218;28;20219;-82
2021/08/02 14:24:15;;;;;;;3.10;2.90;;;19.90;99.90;;;;;;10291029;28;20216;-82
2021/08/02 14:29:18;;;;;;;3.87;3.60;;;20.00;99.90;;;;;;10273173;28;20224;-84
2021/08/02 14:34:21;;;;;;;3.57;3.37;;;20.10;99.90;;;;;;10289384;28;20290;-82
2021/08/02 14:39:26;;;;;;;2.83;2.70;;;20.20;99.90;;;;;;10296631;28;20700;-82
2021/08/02 14:44:39;;;;;;;3.00;2.77;;;20.30;99.90;;;;;;10265261;28;20210;-82
2021/08/02 14:49:49;;;;;;;2.97;2.73;;;20.60;99.90;;;;;;10299238;28;20652;-82
2021/08/02 14:54:52;;;;;;;3.80;3.50;;;20.60;99.90;;;;;;10265451;28;20238;-82
2021/08/02 14:59:55;;;;;;;2.80;2.60;;;20.80;99.90;;;;;;10282850;28;20228;-83
2021/08/02 15:05:00;;;;;;;2.53;2.43;;;20.90;99.90;;;;;;10281937;28;20216;-82
2021/08/02 15:10:04;;;;;;;3.53;3.23;;;21.00;99.90;;;;;;10281589;28;20200;-82
2021/08/02 15:15:07;;;;;;;3.60;3.30;;;20.90;99.90;;;;;;10298711;28;20643;-82
2021/08/02 15:20:13;;;;;;;3.17;2.97;;;21.00;99.90;;;;;;10265057;28;20203;-82
2021/08/02 15:25:19;;;;;;;3.03;2.83;;;21.00;99.90;;;;;;10265875;28;20223;-83
2021/08/02 15:30:22;;;;;;;3.80;3.50;;;21.10;99.90;;;;;;10280052;28;20278;-82
2021/08/02 15:35:26;;;;;;;3.33;3.13;;;21.10;99.90;;;;;;10281080;28;20251;-82
2021/08/02 15:40:31;;;;;;;3.70;3.50;;;21.10;99.90;;;;;;10279921;28;20257;-82
2021/08/02 15:45:33;;;;;;;4.23;2.67;;;21.20;99.90;;;;;;10265159;28;20246;-82
2021/08/02 15:50:35;;;;;;;3.07;2.87;;;21.20;99.90;;;;;;10293922;28;20221;-82
2021/08/02 15:55:41;;;;;;;3.40;3.20;;;21.30;99.90;;;;;;10263147;28;20231;-82
2021/08/02 16:00:49;;;;;;;3.07;2.77;;;21.30;99.90;;;;;;10296572;28;20728;-82
2021/08/02 16:05:58;;;;;;;3.10;2.80;;;21.40;99.90;;;;;;10262996;28;20271;-82
2021/08/02 16:11:03;;;;;;;2.07;1.90;;;21.50;99.90;;;;;;10262515;28;20583;-82
2021/08/02 16:16:06;;;;;;;2.40;2.30;;;21.40;99.90;;;;;;10298369;28;20230;-82
2021/08/02 16:21:08;;;;;;;2.07;1.97;;;21.20;99.90;;;;;;10310908;28;20286;-82
2021/08/02 16:26:13;;;;;;;1.63;1.53;;;21.00;99.90;;;;;;10319676;28;20251;-83
2021/08/02 16:31:25;;;;;;;2.00;1.90;;;20.90;99.90;;;;;;10304936;28;20199;-83
2021/08/02 16:36:33;;;;;;;1.80;1.70;;;20.80;99.90;;;;;;10303287;28;20242;-82
2021/08/02 16:41:39;;;;;;;2.10;1.90;;;20.70;99.90;;;;;;10318334;28;20227;-82
2021/08/02 16:46:41;;;;;;;2.10;2.00;;;20.70;99.90;;;;;;10335721;28;20563;-83
2021/08/02 16:51:43;;;;;;;2.00;1.90;;;20.60;99.90;;;;;;10338514;28;20661;-82
2021/08/02 16:56:47;;;;;;;3.03;2.50;;;20.60;99.90;;;;;;10313264;28;20250;-84
2021/08/02 17:01:51;;;;;;;3.00;2.80;;;20.60;99.90;;;;;;10329668;28;20203;-82
2021/08/02 17:06:53;;;;;;;2.30;2.13;;;20.60;99.90;;;;;;10346580;28;20211;-83
2021/08/02 17:11:57;;;;;;;1.90;1.80;;;20.60;99.90;;;;;;10350177;28;20195;-82
2021/08/02 17:16:59;;;;;;;2.73;2.63;;;20.60;99.90;;;;;;10346581;28;20225;-82
2021/08/02 17:22:01;;;;;;;2.23;2.07;;;20.50;99.90;;;;;;10334794;28;20199;-82
2021/08/02 17:27:05;;;;;;;2.40;2.30;;;20.40;99.90;;;;;;10317649;28;20699;-82
2021/08/02 17:32:08;;;;;;;2.43;2.10;;;20.40;99.90;;;;;;10333574;28;20203;-82
2021/08/02 17:37:10;;;;;;;2.30;2.20;;;20.30;99.90;;;;;;10302272;28;20285;-83
2021/08/02 17:42:14;;;;;;;3.30;2.10;;;20.00;99.90;;;;;;10334790;28;20207;-84
2021/08/02 17:47:16;;;;;;;3.20;2.77;;;19.70;99.90;;;;;;10321542;28;20259;-82
2021/08/02 17:52:18;;;;;;;2.77;2.40;;;19.50;99.90;;;;;;10277684;28;20294;-82
2021/08/02 17:57:21;;;;;;;2.90;2.70;;;19.40;99.90;;;;;;10297523;28;20238;-82
2021/08/02 18:02:24;;;;;;;2.40;2.30;;;19.30;99.90;;;;;;10298459;28;20204;-83
2021/08/02 18:07:26;;;;;;;2.23;2.10;;;19.30;99.90;;;;;;10280153;28;20234;-82
2021/08/02 18:12:31;;;;;;;2.40;2.30;;;19.30;99.90;;;;;;10266318;28;20207;-82
2021/08/02 18:17:33;;;;;;;2.60;2.10;;;19.30;99.90;;;;;;10302782;28;20324;-83
2021/08/02 18:22:36;;;;;;;3.30;1.93;;;19.40;99.90;;;;;;10338801;28;20207;-82
2021/08/02 18:27:39;;;;;;;2.00;1.90;;;19.40;99.90;;;;;;10321614;28;20219;-82
2021/08/02 18:32:43;;;;;;;2.23;2.13;;;19.50;99.90;;;;;;10334429;28;20191;-82
2021/08/02 18:37:46;;;;;;;1.93;1.83;;;19.50;99.90;;;;;;10317127;28;20230;-82
2021/08/02 18:42:49;;;;;;;2.03;1.93;;;19.40;99.90;;;;;;10318563;28;20246;-84
2021/08/02 18:47:51;;;;;;;2.40;2.20;;;19.40;99.90;;;;;;10297234;28;20576;-82
2021/08/02 18:52:53;;;;;;;2.70;2.50;;;19.30;99.90;;;;;;10298795;28;20235;-82
2021/08/02 18:57:58;;;;;;;2.30;2.20;;;19.30;99.90;;;;;;10290589;28;20278;-82
2021/08/02 19:03:02;;;;;;;1.97;1.87;;;19.10;99.90;;;;;;10293187;28;20200;-82
2021/08/02 19:08:05;;;;;;;2.30;2.20;;;19.00;99.90;;;;;;10310818;28;20275;-82
2021/08/02 19:13:10;;;;;;;1.90;1.80;;;19.00;99.90;;;;;;10266788;28;20203;-83
2021/08/02 19:18:23;;;;;;;1.90;1.80;;;18.90;99.90;;;;;;10275723;28;20220;-84
2021/08/02 19:23:28;;;;;;;4.80;2.50;;;18.90;99.90;;;;;;10271479;28;20284;-83
2021/08/02 19:28:33;;;;;;;3.00;2.80;;;18.80;99.90;;;;;;10260960;28;20228;-83
2021/08/02 19:33:35;;;;;;;3.00;2.20;;;18.80;99.90;;;;;;10274605;28;20208;-83
2021/08/02 19:38:38;;;;;;;2.43;2.30;;;18.80;99.90;;;;;;10288273;28;20416;-82
2021/08/02 19:43:45;;;;;;;2.20;2.00;;;18.80;99.90;;;;;;10270164;28;20298;-82
2021/08/02 19:48:53;;;;;;;2.20;2.10;;;18.80;99.90;;;;;;10296654;28;20224;-83
2021/08/02 19:53:56;;;;;;;3.00;2.80;;;18.70;99.90;;;;;;10298711;28;20208;-82
2021/08/02 19:59:01;;;;;;;2.60;2.40;;;18.70;99.90;;;;;;10289062;28;20223;-82
2021/08/02 20:04:04;;;;;;;3.33;2.80;;;18.70;99.90;;;;;;10286083;28;20227;-82
2021/08/02 20:09:07;;;;;;;2.57;2.40;;;18.70;99.90;;;;;;10279771;28;20222;-82
2021/08/02 20:14:11;;;;;;;2.60;2.40;;;18.70;99.90;;;;;;10269320;28;20230;-82
2021/08/02 20:19:15;;;;;;;2.37;2.27;;;18.70;99.90;;;;;;10275689;28;20260;-82
2021/08/02 20:24:20;;;;;;;3.80;2.90;;;18.70;99.90;;;;;;10279347;28;20200;-82
2021/08/02 20:29:29;;;;;;;3.13;2.70;;;18.60;99.90;;;;;;10318678;28;20212;-82
2021/08/02 20:34:36;;;;;;;2.60;2.40;;;18.40;99.90;;;;;;10296208;28;20208;-82
2021/08/02 20:39:39;;;;;;;2.80;2.30;;;18.40;99.90;;;;;;10284329;28;20710;-82
2021/08/02 20:44:43;;;;;;;5.97;2.47;;;18.30;99.90;;;;;;10286224;28;20302;-82
2021/08/02 20:49:47;;;;;;;2.73;2.53;;;18.20;99.90;;;;;;10264078;28;20691;-82
2021/08/02 20:54:51;;;;;;;2.90;2.70;;;18.20;99.90;;;;;;10264897;28;20212;-82
2021/08/02 20:59:59;;;;;;;2.70;2.60;;;18.10;99.90;;;;;;10270678;28;20231;-82
2021/08/02 21:05:06;;;;;;;5.87;3.07;;;18.00;99.90;;;;;;10279933;28;20219;-82
2021/08/02 21:10:11;;;;;;;2.67;2.47;;;18.00;99.90;;;;;;10279524;28;20203;-82
2021/08/02 21:15:15;;;;;;;3.80;2.87;;;17.90;99.90;;;;;;10280511;28;20568;-82
2021/08/02 21:20:21;;;;;;;3.07;2.87;;;17.80;99.90;;;;;;10279353;28;20207;-82
2021/08/02 21:25:25;;;;;;;3.27;3.07;;;17.80;99.90;;;;;;10295818;28;20241;-82
2021/08/02 21:30:32;;;;;;;2.67;2.33;;;17.70;99.90;;;;;;10295694;28;20550;-82
2021/08/02 21:35:35;;;;;;;2.97;2.77;;;17.70;99.90;;;;;;10295975;28;20579;-82
2021/08/02 21:40:38;;;;;;;2.83;2.57;;;17.60;99.90;;;;;;10278471;28;20652;-82
2021/08/02 21:45:42;;;;;;;2.60;2.50;;;17.60;99.90;;;;;;10276710;28;20453;-82
2021/08/02 21:50:44;;;;;;;2.57;2.37;;;17.50;99.90;;;;;;10295053;28;20295;-82
2021/08/02 21:55:46;;;;;;;3.40;3.10;;;17.50;99.90;;;;;;10278649;28;20307;-82
2021/08/02 22:00:50;;;;;;;3.30;3.07;;;17.50;99.90;;;;;;10296501;28;20545;-82
2021/08/02 22:05:52;;;;;;;2.40;2.30;;;17.50;99.90;;;;;;10276578;28;20740;-82
2021/08/02 22:10:54;;;;;;;3.20;3.00;;;17.50;99.90;;;;;;10296045;28;20279;-82
2021/08/02 22:15:58;;;;;;;3.20;2.90;;;17.50;99.90;;;;;;10274641;28;20310;-82
2021/08/02 22:21:00;;;;;;;3.50;3.20;;;17.50;99.90;;;;;;10277884;28;20282;-82
2021/08/02 22:26:03;;;;;;;2.20;2.10;;;17.50;99.90;;;;;;10278278;28;20311;-82
2021/08/02 22:31:07;;;;;;;4.40;2.90;;;17.50;99.90;;;;;;10263773;28;20368;-83
2021/08/02 22:36:09;;;;;;;2.63;2.40;;;17.40;99.90;;;;;;10263492;28;20286;-82
2021/08/02 22:41:11;;;;;;;3.10;2.70;;;17.40;99.90;;;;;;10296353;28;20203;-82
2021/08/02 22:46:14;;;;;;;3.03;2.83;;;17.40;99.90;;;;;;10278021;28;20231;-82
2021/08/02 22:51:18;;;;;;;3.43;2.63;;;17.40;99.90;;;;;;10285479;28;20622;-82
2021/08/02 22:56:22;;;;;;;3.00;2.80;;;17.40;99.90;;;;;;10286180;28;20669;-82
2021/08/02 23:01:26;;;;;;;2.93;2.63;;;17.30;99.90;;;;;;10299716;28;20272;-82
2021/08/02 23:06:33;;;;;;;2.50;2.40;;;17.30;99.90;;;;;;10296717;28;20220;-82
2021/08/02 23:11:37;;;;;;;3.73;2.43;;;17.30;99.90;;;;;;10290807;28;20246;-82
2021/08/02 23:16:42;;;;;;;2.97;2.30;;;17.20;99.90;;;;;;10274393;28;20307;-82
2021/08/02 23:21:44;;;;;;;2.73;2.50;;;17.20;99.90;;;;;;10290023;28;20687;-82
2021/08/02 23:26:46;;;;;;;2.70;2.57;;;17.20;99.90;;;;;;10269712;28;20700;-82
2021/08/02 23:31:52;;;;;;;2.27;2.17;;;17.20;99.90;;;;;;10298846;28;20211;-82
2021/08/02 23:37:02;;;;;;;2.90;2.60;;;17.10;99.90;;;;;;10298192;28;20227;-82
2021/08/02 23:42:08;;;;;;;2.40;2.20;;;17.10;99.90;;;;;;10300578;28;20234;-82
2021/08/02 23:47:11;;;;;;;2.80;2.60;;;17.00;99.90;;;;;;10309610;28;20216;-82
2021/08/02 23:52:14;;;;;;;2.73;2.53;;;17.00;99.90;;;;;;10290647;28;20292;-82
2021/08/02 23:57:16;;;;;;;2.90;2.70;;;17.00;99.90;;;;;;10287896;28;20231;-82
